createdAt,value
2017-05-12T05:04:38.345Z,994.07
2017-05-12T05:05:40.085Z,994.56
2017-05-12T05:06:41.817Z,995.02
2017-05-12T05:07:43.426Z,995.39
2017-05-12T05:08:45.319Z,995.73
2017-05-12T05:09:47.047Z,995.99
2017-05-12T05:10:48.768Z,996.19
2017-05-12T05:11:50.443Z,996.28
2017-05-12T05:12:52.204Z,996.35
2017-05-12T05:13:53.886Z,996.41
2017-05-12T05:14:55.745Z,996.46
2017-05-12T05:15:57.559Z,996.44
2017-05-12T05:16:59.303Z,996.39
2017-05-12T05:18:00.982Z,996.35
2017-05-12T05:19:02.650Z,996.26
2017-05-12T05:20:04.360Z,996.18
2017-05-12T05:21:06.022Z,996.13
2017-05-12T05:22:08.635Z,996.02
2017-05-12T05:23:10.969Z,995.93
2017-05-12T05:24:13.509Z,995.82
2017-05-12T05:25:15.238Z,995.72
2017-05-12T05:26:16.859Z,995.65
2017-05-12T05:27:18.630Z,995.58
2017-05-12T05:28:20.304Z,995.50
2017-05-12T05:29:21.964Z,995.45
2017-05-12T05:30:24.002Z,995.38
2017-05-12T05:31:25.819Z,995.32
2017-05-12T05:32:27.538Z,995.26
2017-05-12T05:33:29.252Z,995.25
2017-05-12T05:34:30.907Z,995.22
2017-05-12T05:35:32.688Z,995.21
2017-05-12T05:36:34.553Z,995.18
2017-05-12T05:37:36.263Z,995.13
2017-05-12T05:38:37.938Z,995.06
2017-05-12T05:39:39.700Z,995.06
2017-05-12T05:40:42.238Z,995.03
2017-05-12T05:41:44.064Z,994.99
2017-05-12T05:42:45.838Z,995.03
2017-05-12T05:43:47.474Z,994.99
2017-05-12T05:44:49.236Z,994.97
2017-05-12T05:45:50.960Z,994.97
2017-05-12T05:46:52.751Z,994.94
2017-05-12T05:47:54.498Z,994.90
2017-05-12T05:49:35.698Z,994.46
2017-05-12T05:51:16.929Z,993.78
2017-05-12T05:52:18.582Z,993.86
2017-05-12T05:53:20.347Z,994.08
2017-05-12T05:54:22.136Z,994.18
2017-05-12T05:55:23.931Z,994.35
2017-05-12T05:56:25.598Z,994.48
2017-05-12T05:57:27.321Z,994.55
2017-05-12T05:58:29.044Z,994.65
2017-05-12T05:59:30.889Z,994.68
2017-05-12T06:00:32.692Z,994.72
2017-05-12T06:01:34.518Z,994.82
2017-05-12T06:02:36.319Z,994.82
2017-05-12T06:03:37.981Z,994.84
2017-05-12T06:04:39.615Z,994.86
2017-05-12T06:05:41.241Z,994.85
2017-05-12T06:06:42.968Z,994.87
2017-05-12T06:07:44.672Z,994.87
2017-05-12T06:08:46.349Z,994.84
2017-05-12T06:09:47.925Z,994.84
2017-05-12T06:10:49.573Z,994.87
2017-05-12T06:11:51.359Z,994.86
2017-05-12T06:12:52.995Z,994.90
2017-05-12T06:13:54.625Z,994.92
2017-05-12T06:14:56.307Z,994.93
2017-05-12T06:15:57.986Z,994.98
2017-05-12T06:16:59.712Z,994.94
2017-05-12T06:18:01.416Z,994.93
2017-05-12T06:19:03.043Z,994.94
2017-05-12T06:20:04.700Z,994.89
2017-05-12T06:21:06.378Z,994.83
2017-05-12T06:22:08.150Z,994.87
2017-05-12T06:23:09.930Z,994.79
2017-05-12T06:24:11.810Z,994.77
2017-05-12T06:25:14.097Z,994.71
2017-05-12T06:26:16.698Z,994.71
2017-05-12T06:27:19.247Z,994.67
2017-05-12T06:28:21.764Z,994.64
2017-05-12T06:29:23.529Z,994.63
2017-05-12T06:30:27.014Z,994.64
2017-05-12T06:31:32.199Z,994.61
2017-05-12T06:32:35.244Z,994.60
2017-05-12T06:33:38.195Z,994.66
2017-05-12T06:34:39.906Z,994.74
2017-05-12T06:35:41.612Z,994.74
2017-05-12T06:36:43.297Z,994.70
2017-05-12T06:37:45.089Z,994.70
2017-05-12T06:38:46.770Z,994.70
2017-05-12T06:39:48.501Z,994.73
2017-05-12T06:40:55.127Z,994.75
2017-05-12T15:30:37.815Z,996.26
2017-05-12T23:42:59.811Z,1000.35
2017-05-12T23:44:06.497Z,1000.80
2017-05-12T23:46:13.663Z,1001.09
2017-05-12T23:47:15.569Z,1001.10
2017-05-12T23:48:19.725Z,1001.04
2017-05-12T23:49:22.819Z,1000.98
2017-05-12T23:50:27.486Z,1000.94
2017-05-12T23:51:29.237Z,1000.88
2017-05-12T23:52:30.944Z,1000.83
2017-05-12T23:53:32.617Z,1000.78
2017-05-12T23:54:34.928Z,1000.74
2017-05-12T23:55:36.625Z,1000.78
2017-05-12T23:56:38.306Z,1000.70
2017-05-12T23:57:39.984Z,1000.69
2017-05-12T23:58:41.651Z,1000.64
2017-05-12T23:59:43.221Z,1000.60
